sensor_id;sensor_type;location;lat;lon;timestamp;P1;durP1;ratioP1;P2;durP2;ratioP2
35110;SDS011;21290;50.158;8.658;2022-08-19T00:01:44;14.95;;;11.73;;
35110;SDS011;21290;50.158;8.658;2022-08-19T00:04:20;15.90;;;12.48;;
35110;SDS011;21290;50.158;8.658;2022-08-19T00:06:48;18.63;;;13.38;;
35110;SDS011;21290;50.158;8.658;2022-08-19T00:09:16;13.98;;;12.38;;
35110;SDS011;21290;50.158;8.658;2022-08-19T00:11:45;21.13;;;12.15;;
35110;SDS011;21290;50.158;8.658;2022-08-19T00:14:13;14.10;;;11.93;;
35110;SDS011;21290;50.158;8.658;2022-08-19T00:16:41;17.67;;;12.73;;
35110;SDS011;21290;50.158;8.658;2022-08-19T00:19:10;14.57;;;13.00;;
35110;SDS011;21290;50.158;8.658;2022-08-19T00:21:37;16.05;;;12.75;;
35110;SDS011;21290;50.158;8.658;2022-08-19T00:24:09;18.27;;;13.93;;
35110;SDS011;21290;50.158;8.658;2022-08-19T00:26:37;16.60;;;13.65;;
35110;SDS011;21290;50.158;8.658;2022-08-19T00:29:05;17.40;;;13.60;;
35110;SDS011;21290;50.158;8.658;2022-08-19T00:34:00;21.10;;;13.35;;
35110;SDS011;21290;50.158;8.658;2022-08-19T00:36:27;17.38;;;13.55;;
35110;SDS011;21290;50.158;8.658;2022-08-19T00:38:55;16.67;;;13.25;;
35110;SDS011;21290;50.158;8.658;2022-08-19T00:41:23;15.68;;;13.40;;
35110;SDS011;21290;50.158;8.658;2022-08-19T00:43:58;16.42;;;13.07;;
35110;SDS011;21290;50.158;8.658;2022-08-19T00:46:28;21.92;;;13.38;;
35110;SDS011;21290;50.158;8.658;2022-08-19T00:48:55;18.55;;;13.70;;
35110;SDS011;21290;50.158;8.658;2022-08-19T00:51:24;17.10;;;13.43;;
35110;SDS011;21290;50.158;8.658;2022-08-19T00:53:54;19.67;;;13.45;;
35110;SDS011;21290;50.158;8.658;2022-08-19T00:56:23;16.23;;;12.63;;
35110;SDS011;21290;50.158;8.658;2022-08-19T00:58:52;16.25;;;13.75;;
35110;SDS011;21290;50.158;8.658;2022-08-19T01:01:22;15.90;;;12.88;;
35110;SDS011;21290;50.158;8.658;2022-08-19T01:03:49;17.75;;;13.38;;
35110;SDS011;21290;50.158;8.658;2022-08-19T01:06:24;14.35;;;12.25;;
35110;SDS011;21290;50.158;8.658;2022-08-19T01:08:52;16.70;;;13.75;;
35110;SDS011;21290;50.158;8.658;2022-08-19T01:11:21;17.80;;;12.60;;
35110;SDS011;21290;50.158;8.658;2022-08-19T01:13:47;16.70;;;12.48;;
35110;SDS011;21290;50.158;8.658;2022-08-19T01:16:16;13.93;;;11.75;;
35110;SDS011;21290;50.158;8.658;2022-08-19T01:18:45;18.25;;;12.30;;
35110;SDS011;21290;50.158;8.658;2022-08-19T01:21:15;14.38;;;12.48;;
35110;SDS011;21290;50.158;8.658;2022-08-19T01:23:50;17.20;;;12.40;;
35110;SDS011;21290;50.158;8.658;2022-08-19T01:26:19;17.42;;;12.13;;
35110;SDS011;21290;50.158;8.658;2022-08-19T01:28:49;16.52;;;10.98;;
35110;SDS011;21290;50.158;8.658;2022-08-19T01:31:19;14.57;;;11.48;;
35110;SDS011;21290;50.158;8.658;2022-08-19T01:33:53;19.65;;;11.85;;
35110;SDS011;21290;50.158;8.658;2022-08-19T01:36:23;15.32;;;11.68;;
35110;SDS011;21290;50.158;8.658;2022-08-19T01:38:54;15.43;;;11.95;;
35110;SDS011;21290;50.158;8.658;2022-08-19T01:41:21;15.80;;;11.75;;
35110;SDS011;21290;50.158;8.658;2022-08-19T01:43:50;13.67;;;11.27;;
35110;SDS011;21290;50.158;8.658;2022-08-19T01:46:38;15.55;;;12.20;;
35110;SDS011;21290;50.158;8.658;2022-08-19T01:49:05;13.73;;;11.85;;
35110;SDS011;21290;50.158;8.658;2022-08-19T01:51:34;14.27;;;11.65;;
35110;SDS011;21290;50.158;8.658;2022-08-19T01:54:05;14.63;;;12.00;;
35110;SDS011;21290;50.158;8.658;2022-08-19T01:56:35;16.30;;;12.30;;
35110;SDS011;21290;50.158;8.658;2022-08-19T01:59:06;14.90;;;12.40;;
35110;SDS011;21290;50.158;8.658;2022-08-19T02:01:37;14.07;;;11.82;;
35110;SDS011;21290;50.158;8.658;2022-08-19T02:04:04;18.42;;;11.35;;
35110;SDS011;21290;50.158;8.658;2022-08-19T02:06:31;14.15;;;11.90;;
35110;SDS011;21290;50.158;8.658;2022-08-19T02:08:59;15.85;;;12.68;;
35110;SDS011;21290;50.158;8.658;2022-08-19T02:11:30;15.15;;;11.60;;
35110;SDS011;21290;50.158;8.658;2022-08-19T02:14:00;18.52;;;11.90;;
35110;SDS011;21290;50.158;8.658;2022-08-19T02:16:28;16.05;;;11.90;;
35110;SDS011;21290;50.158;8.658;2022-08-19T02:18:54;20.58;;;11.77;;
35110;SDS011;21290;50.158;8.658;2022-08-19T02:21:22;15.40;;;12.38;;
35110;SDS011;21290;50.158;8.658;2022-08-19T02:23:50;16.50;;;12.73;;
35110;SDS011;21290;50.158;8.658;2022-08-19T02:26:17;14.55;;;11.57;;
35110;SDS011;21290;50.158;8.658;2022-08-19T02:28:45;15.87;;;11.37;;
35110;SDS011;21290;50.158;8.658;2022-08-19T02:31:13;15.63;;;11.68;;
35110;SDS011;21290;50.158;8.658;2022-08-19T02:33:45;16.48;;;12.35;;
35110;SDS011;21290;50.158;8.658;2022-08-19T02:36:12;12.73;;;11.38;;
35110;SDS011;21290;50.158;8.658;2022-08-19T02:38:40;13.47;;;10.93;;
35110;SDS011;21290;50.158;8.658;2022-08-19T02:41:22;17.98;;;11.48;;
35110;SDS011;21290;50.158;8.658;2022-08-19T02:43:52;13.25;;;10.80;;
35110;SDS011;21290;50.158;8.658;2022-08-19T02:46:40;15.60;;;11.07;;
35110;SDS011;21290;50.158;8.658;2022-08-19T02:49:07;15.40;;;10.70;;
35110;SDS011;21290;50.158;8.658;2022-08-19T02:51:35;13.38;;;11.20;;
35110;SDS011;21290;50.158;8.658;2022-08-19T02:54:05;13.32;;;10.88;;
35110;SDS011;21290;50.158;8.658;2022-08-19T02:56:37;11.90;;;9.95;;
35110;SDS011;21290;50.158;8.658;2022-08-19T02:59:05;14.43;;;10.70;;
35110;SDS011;21290;50.158;8.658;2022-08-19T03:01:37;14.38;;;11.30;;
35110;SDS011;21290;50.158;8.658;2022-08-19T03:04:06;14.30;;;10.40;;
35110;SDS011;21290;50.158;8.658;2022-08-19T03:06:38;15.10;;;11.25;;
35110;SDS011;21290;50.158;8.658;2022-08-19T03:09:06;14.88;;;10.93;;
35110;SDS011;21290;50.158;8.658;2022-08-19T03:11:33;13.65;;;10.82;;
35110;SDS011;21290;50.158;8.658;2022-08-19T03:14:00;14.73;;;11.00;;
35110;SDS011;21290;50.158;8.658;2022-08-19T03:16:29;13.48;;;10.48;;
35110;SDS011;21290;50.158;8.658;2022-08-19T03:18:58;17.02;;;10.85;;
35110;SDS011;21290;50.158;8.658;2022-08-19T03:21:26;12.70;;;10.68;;
35110;SDS011;21290;50.158;8.658;2022-08-19T03:26:22;12.65;;;9.93;;
35110;SDS011;21290;50.158;8.658;2022-08-19T03:28:49;12.88;;;9.93;;
35110;SDS011;21290;50.158;8.658;2022-08-19T03:31:23;15.73;;;10.52;;
35110;SDS011;21290;50.158;8.658;2022-08-19T03:34:12;13.20;;;10.50;;
35110;SDS011;21290;50.158;8.658;2022-08-19T03:36:40;12.15;;;10.23;;
35110;SDS011;21290;50.158;8.658;2022-08-19T03:39:09;11.95;;;10.18;;
35110;SDS011;21290;50.158;8.658;2022-08-19T03:41:37;12.80;;;8.87;;
35110;SDS011;21290;50.158;8.658;2022-08-19T03:44:12;12.45;;;9.80;;
35110;SDS011;21290;50.158;8.658;2022-08-19T03:46:43;12.07;;;9.65;;
35110;SDS011;21290;50.158;8.658;2022-08-19T03:49:11;13.75;;;10.50;;
35110;SDS011;21290;50.158;8.658;2022-08-19T03:51:40;12.03;;;10.13;;
35110;SDS011;21290;50.158;8.658;2022-08-19T03:54:08;12.65;;;9.77;;
35110;SDS011;21290;50.158;8.658;2022-08-19T03:56:37;11.18;;;9.50;;
35110;SDS011;21290;50.158;8.658;2022-08-19T03:59:07;16.83;;;9.82;;
35110;SDS011;21290;50.158;8.658;2022-08-19T04:01:36;13.00;;;9.55;;
35110;SDS011;21290;50.158;8.658;2022-08-19T04:04:03;11.35;;;9.82;;
35110;SDS011;21290;50.158;8.658;2022-08-19T04:06:34;15.90;;;10.10;;
35110;SDS011;21290;50.158;8.658;2022-08-19T04:09:06;19.20;;;11.57;;
35110;SDS011;21290;50.158;8.658;2022-08-19T04:11:36;13.18;;;10.25;;
35110;SDS011;21290;50.158;8.658;2022-08-19T04:14:14;11.85;;;9.95;;
35110;SDS011;21290;50.158;8.658;2022-08-19T04:16:43;11.98;;;9.45;;
35110;SDS011;21290;50.158;8.658;2022-08-19T04:19:10;12.77;;;10.35;;
35110;SDS011;21290;50.158;8.658;2022-08-19T04:21:38;16.80;;;11.13;;
35110;SDS011;21290;50.158;8.658;2022-08-19T04:24:05;15.20;;;10.48;;
35110;SDS011;21290;50.158;8.658;2022-08-19T04:26:34;13.77;;;10.23;;
35110;SDS011;21290;50.158;8.658;2022-08-19T04:29:07;12.73;;;10.43;;
35110;SDS011;21290;50.158;8.658;2022-08-19T04:31:38;13.13;;;10.27;;
35110;SDS011;21290;50.158;8.658;2022-08-19T04:34:06;11.55;;;10.20;;
35110;SDS011;21290;50.158;8.658;2022-08-19T04:36:37;13.27;;;10.85;;
35110;SDS011;21290;50.158;8.658;2022-08-19T04:39:11;12.65;;;9.90;;
35110;SDS011;21290;50.158;8.658;2022-08-19T04:41:41;15.35;;;10.82;;
35110;SDS011;21290;50.158;8.658;2022-08-19T04:44:27;13.25;;;9.82;;
35110;SDS011;21290;50.158;8.658;2022-08-19T04:46:58;14.02;;;10.57;;
35110;SDS011;21290;50.158;8.658;2022-08-19T04:49:26;12.95;;;10.60;;
35110;SDS011;21290;50.158;8.658;2022-08-19T04:51:53;12.55;;;9.43;;
35110;SDS011;21290;50.158;8.658;2022-08-19T04:54:22;12.93;;;9.90;;
35110;SDS011;21290;50.158;8.658;2022-08-19T04:57:04;15.68;;;10.75;;
35110;SDS011;21290;50.158;8.658;2022-08-19T04:59:36;14.73;;;10.45;;
35110;SDS011;21290;50.158;8.658;2022-08-19T05:02:04;14.00;;;10.10;;
35110;SDS011;21290;50.158;8.658;2022-08-19T05:04:32;13.13;;;10.05;;
35110;SDS011;21290;50.158;8.658;2022-08-19T05:06:59;15.80;;;11.07;;
35110;SDS011;21290;50.158;8.658;2022-08-19T05:09:28;15.60;;;10.43;;
35110;SDS011;21290;50.158;8.658;2022-08-19T05:12:15;13.25;;;9.73;;
35110;SDS011;21290;50.158;8.658;2022-08-19T05:14:42;16.40;;;10.40;;
35110;SDS011;21290;50.158;8.658;2022-08-19T05:17:10;12.80;;;10.40;;
35110;SDS011;21290;50.158;8.658;2022-08-19T05:19:53;16.80;;;10.55;;
35110;SDS011;21290;50.158;8.658;2022-08-19T05:22:38;17.17;;;9.68;;
35110;SDS011;21290;50.158;8.658;2022-08-19T05:25:09;14.15;;;9.75;;
35110;SDS011;21290;50.158;8.658;2022-08-19T05:27:39;13.52;;;9.20;;
35110;SDS011;21290;50.158;8.658;2022-08-19T05:30:07;10.45;;;8.65;;
35110;SDS011;21290;50.158;8.658;2022-08-19T05:32:35;11.63;;;9.05;;
35110;SDS011;21290;50.158;8.658;2022-08-19T05:35:02;12.52;;;9.35;;
35110;SDS011;21290;50.158;8.658;2022-08-19T05:37:29;11.90;;;9.45;;
35110;SDS011;21290;50.158;8.658;2022-08-19T05:39:56;10.75;;;8.13;;
35110;SDS011;21290;50.158;8.658;2022-08-19T05:42:22;9.80;;;8.77;;
35110;SDS011;21290;50.158;8.658;2022-08-19T05:44:50;14.32;;;8.45;;
35110;SDS011;21290;50.158;8.658;2022-08-19T05:47:17;12.68;;;8.52;;
35110;SDS011;21290;50.158;8.658;2022-08-19T05:49:46;12.77;;;8.35;;
35110;SDS011;21290;50.158;8.658;2022-08-19T05:52:14;13.43;;;8.27;;
35110;SDS011;21290;50.158;8.658;2022-08-19T05:54:43;15.43;;;8.32;;
35110;SDS011;21290;50.158;8.658;2022-08-19T05:57:17;9.15;;;8.10;;
35110;SDS011;21290;50.158;8.658;2022-08-19T05:59:45;13.65;;;7.82;;
35110;SDS011;21290;50.158;8.658;2022-08-19T06:02:18;13.35;;;7.90;;
35110;SDS011;21290;50.158;8.658;2022-08-19T06:04:44;8.57;;;7.60;;
35110;SDS011;21290;50.158;8.658;2022-08-19T06:07:11;11.93;;;7.40;;
35110;SDS011;21290;50.158;8.658;2022-08-19T06:09:38;13.00;;;7.63;;
35110;SDS011;21290;50.158;8.658;2022-08-19T06:12:08;11.80;;;7.45;;
35110;SDS011;21290;50.158;8.658;2022-08-19T06:14:35;8.90;;;6.97;;
35110;SDS011;21290;50.158;8.658;2022-08-19T06:17:06;8.23;;;6.50;;
35110;SDS011;21290;50.158;8.658;2022-08-19T06:19:33;9.82;;;7.10;;
35110;SDS011;21290;50.158;8.658;2022-08-19T06:22:06;9.52;;;6.53;;
35110;SDS011;21290;50.158;8.658;2022-08-19T06:24:33;9.38;;;6.40;;
35110;SDS011;21290;50.158;8.658;2022-08-19T06:27:01;7.25;;;6.22;;
35110;SDS011;21290;50.158;8.658;2022-08-19T06:29:29;7.65;;;6.28;;
35110;SDS011;21290;50.158;8.658;2022-08-19T06:31:56;7.57;;;5.80;;
35110;SDS011;21290;50.158;8.658;2022-08-19T06:36:54;8.05;;;5.88;;
35110;SDS011;21290;50.158;8.658;2022-08-19T06:39:23;7.37;;;5.47;;
35110;SDS011;21290;50.158;8.658;2022-08-19T06:44:25;6.35;;;5.53;;
35110;SDS011;21290;50.158;8.658;2022-08-19T06:46:55;9.70;;;5.63;;
35110;SDS011;21290;50.158;8.658;2022-08-19T06:49:23;7.15;;;5.57;;
35110;SDS011;21290;50.158;8.658;2022-08-19T06:51:51;6.93;;;5.30;;
35110;SDS011;21290;50.158;8.658;2022-08-19T06:54:18;11.15;;;5.60;;
35110;SDS011;21290;50.158;8.658;2022-08-19T06:56:45;8.57;;;5.25;;
35110;SDS011;21290;50.158;8.658;2022-08-19T06:59:13;8.38;;;4.72;;
35110;SDS011;21290;50.158;8.658;2022-08-19T07:01:44;9.52;;;5.05;;
35110;SDS011;21290;50.158;8.658;2022-08-19T07:04:15;11.25;;;5.32;;
35110;SDS011;21290;50.158;8.658;2022-08-19T07:06:45;6.30;;;5.22;;
35110;SDS011;21290;50.158;8.658;2022-08-19T07:09:20;6.80;;;5.20;;
35110;SDS011;21290;50.158;8.658;2022-08-19T07:11:48;10.90;;;5.10;;
35110;SDS011;21290;50.158;8.658;2022-08-19T07:14:17;8.63;;;5.15;;
35110;SDS011;21290;50.158;8.658;2022-08-19T07:16:46;6.40;;;4.65;;
35110;SDS011;21290;50.158;8.658;2022-08-19T07:19:14;4.57;;;4.18;;
35110;SDS011;21290;50.158;8.658;2022-08-19T07:21:45;7.88;;;4.97;;
35110;SDS011;21290;50.158;8.658;2022-08-19T07:24:19;7.35;;;5.00;;
35110;SDS011;21290;50.158;8.658;2022-08-19T07:26:49;9.55;;;4.85;;
35110;SDS011;21290;50.158;8.658;2022-08-19T07:29:18;5.03;;;4.22;;
35110;SDS011;21290;50.158;8.658;2022-08-19T07:31:50;5.00;;;4.20;;
35110;SDS011;21290;50.158;8.658;2022-08-19T07:34:19;6.25;;;4.00;;
35110;SDS011;21290;50.158;8.658;2022-08-19T07:36:46;5.15;;;4.15;;
35110;SDS011;21290;50.158;8.658;2022-08-19T07:39:17;5.75;;;4.10;;
35110;SDS011;21290;50.158;8.658;2022-08-19T07:41:50;7.68;;;4.38;;
35110;SDS011;21290;50.158;8.658;2022-08-19T07:44:18;6.60;;;3.65;;
35110;SDS011;21290;50.158;8.658;2022-08-19T07:46:47;5.03;;;4.07;;
35110;SDS011;21290;50.158;8.658;2022-08-19T07:49:18;8.98;;;4.10;;
35110;SDS011;21290;50.158;8.658;2022-08-19T07:51:47;8.50;;;4.00;;
35110;SDS011;21290;50.158;8.658;2022-08-19T07:54:34;7.47;;;3.35;;
35110;SDS011;21290;50.158;8.658;2022-08-19T07:57:03;4.70;;;3.95;;
35110;SDS011;21290;50.158;8.658;2022-08-19T07:59:30;6.07;;;3.97;;
35110;SDS011;21290;50.158;8.658;2022-08-19T08:01:57;6.10;;;3.97;;
35110;SDS011;21290;50.158;8.658;2022-08-19T08:04:27;7.80;;;3.60;;
35110;SDS011;21290;50.158;8.658;2022-08-19T08:07:13;8.00;;;3.80;;
35110;SDS011;21290;50.158;8.658;2022-08-19T08:10:00;6.50;;;4.10;;
35110;SDS011;21290;50.158;8.658;2022-08-19T08:15:01;4.38;;;3.53;;
35110;SDS011;21290;50.158;8.658;2022-08-19T08:17:34;5.20;;;3.38;;
35110;SDS011;21290;50.158;8.658;2022-08-19T08:20:16;4.25;;;3.50;;
35110;SDS011;21290;50.158;8.658;2022-08-19T08:22:44;4.47;;;3.55;;
35110;SDS011;21290;50.158;8.658;2022-08-19T08:25:31;4.68;;;3.30;;
35110;SDS011;21290;50.158;8.658;2022-08-19T08:28:00;4.85;;;3.40;;
35110;SDS011;21290;50.158;8.658;2022-08-19T08:30:28;5.43;;;3.40;;
35110;SDS011;21290;50.158;8.658;2022-08-19T08:32:58;8.85;;;3.45;;
35110;SDS011;21290;50.158;8.658;2022-08-19T08:35:27;4.75;;;3.50;;
35110;SDS011;21290;50.158;8.658;2022-08-19T08:37:54;7.95;;;3.30;;
35110;SDS011;21290;50.158;8.658;2022-08-19T08:42:58;5.22;;;2.70;;
35110;SDS011;21290;50.158;8.658;2022-08-19T08:45:38;7.40;;;2.88;;
35110;SDS011;21290;50.158;8.658;2022-08-19T08:48:44;8.70;;;3.13;;
35110;SDS011;21290;50.158;8.658;2022-08-19T08:51:12;6.65;;;2.70;;
35110;SDS011;21290;50.158;8.658;2022-08-19T08:53:46;6.22;;;2.78;;
35110;SDS011;21290;50.158;8.658;2022-08-19T08:56:21;11.68;;;3.28;;
35110;SDS011;21290;50.158;8.658;2022-08-19T08:58:54;5.90;;;2.80;;
35110;SDS011;21290;50.158;8.658;2022-08-19T09:01:22;15.95;;;3.20;;
35110;SDS011;21290;50.158;8.658;2022-08-19T09:03:55;7.50;;;3.10;;
35110;SDS011;21290;50.158;8.658;2022-08-19T09:06:31;8.55;;;2.95;;
35110;SDS011;21290;50.158;8.658;2022-08-19T09:09:03;6.35;;;3.17;;
35110;SDS011;21290;50.158;8.658;2022-08-19T09:11:47;10.13;;;2.60;;
35110;SDS011;21290;50.158;8.658;2022-08-19T09:17:09;5.15;;;2.70;;
35110;SDS011;21290;50.158;8.658;2022-08-19T09:19:46;5.82;;;2.30;;
35110;SDS011;21290;50.158;8.658;2022-08-19T09:22:14;3.35;;;2.58;;
35110;SDS011;21290;50.158;8.658;2022-08-19T09:24:51;6.28;;;3.10;;
35110;SDS011;21290;50.158;8.658;2022-08-19T09:27:18;10.27;;;3.17;;
35110;SDS011;21290;50.158;8.658;2022-08-19T09:30:16;7.23;;;3.00;;
35110;SDS011;21290;50.158;8.658;2022-08-19T09:32:48;4.13;;;2.75;;
35110;SDS011;21290;50.158;8.658;2022-08-19T09:35:19;5.40;;;3.33;;
35110;SDS011;21290;50.158;8.658;2022-08-19T09:37:53;6.07;;;3.25;;
35110;SDS011;21290;50.158;8.658;2022-08-19T09:40:25;5.28;;;3.03;;
35110;SDS011;21290;50.158;8.658;2022-08-19T09:43:00;8.60;;;4.03;;
35110;SDS011;21290;50.158;8.658;2022-08-19T09:45:35;9.80;;;4.47;;
35110;SDS011;21290;50.158;8.658;2022-08-19T09:48:02;8.73;;;4.47;;
35110;SDS011;21290;50.158;8.658;2022-08-19T09:50:28;7.47;;;3.75;;
35110;SDS011;21290;50.158;8.658;2022-08-19T09:53:17;5.28;;;2.95;;
35110;SDS011;21290;50.158;8.658;2022-08-19T09:55:44;7.17;;;2.50;;
35110;SDS011;21290;50.158;8.658;2022-08-19T09:58:11;9.68;;;3.10;;
35110;SDS011;21290;50.158;8.658;2022-08-19T10:00:38;3.30;;;2.63;;
35110;SDS011;21290;50.158;8.658;2022-08-19T10:03:04;5.82;;;2.50;;
35110;SDS011;21290;50.158;8.658;2022-08-19T10:05:33;7.65;;;3.22;;
35110;SDS011;21290;50.158;8.658;2022-08-19T10:08:20;3.78;;;2.95;;
35110;SDS011;21290;50.158;8.658;2022-08-19T10:10:52;5.10;;;3.17;;
35110;SDS011;21290;50.158;8.658;2022-08-19T10:13:20;3.55;;;3.08;;
35110;SDS011;21290;50.158;8.658;2022-08-19T10:15:49;7.47;;;3.65;;
35110;SDS011;21290;50.158;8.658;2022-08-19T10:18:18;5.70;;;3.17;;
35110;SDS011;21290;50.158;8.658;2022-08-19T10:20:47;4.22;;;2.70;;
35110;SDS011;21290;50.158;8.658;2022-08-19T10:23:18;5.90;;;2.97;;
35110;SDS011;21290;50.158;8.658;2022-08-19T10:25:46;4.63;;;3.13;;
35110;SDS011;21290;50.158;8.658;2022-08-19T10:28:13;5.68;;;3.00;;
35110;SDS011;21290;50.158;8.658;2022-08-19T10:30:40;4.00;;;3.13;;
35110;SDS011;21290;50.158;8.658;2022-08-19T10:33:08;4.60;;;3.10;;
35110;SDS011;21290;50.158;8.658;2022-08-19T10:35:36;6.65;;;3.25;;
35110;SDS011;21290;50.158;8.658;2022-08-19T10:38:22;6.70;;;3.20;;
35110;SDS011;21290;50.158;8.658;2022-08-19T10:40:57;5.55;;;3.60;;
35110;SDS011;21290;50.158;8.658;2022-08-19T10:43:32;6.68;;;3.42;;
35110;SDS011;21290;50.158;8.658;2022-08-19T10:46:03;5.88;;;2.92;;
35110;SDS011;21290;50.158;8.658;2022-08-19T10:48:39;4.00;;;2.95;;
35110;SDS011;21290;50.158;8.658;2022-08-19T10:51:06;3.80;;;3.17;;
35110;SDS011;21290;50.158;8.658;2022-08-19T10:53:52;7.65;;;3.30;;
35110;SDS011;21290;50.158;8.658;2022-08-19T10:56:19;5.57;;;3.90;;
35110;SDS011;21290;50.158;8.658;2022-08-19T10:59:04;7.88;;;3.85;;
35110;SDS011;21290;50.158;8.658;2022-08-19T11:01:31;9.50;;;3.70;;
35110;SDS011;21290;50.158;8.658;2022-08-19T11:04:01;6.80;;;4.43;;
35110;SDS011;21290;50.158;8.658;2022-08-19T11:06:31;5.63;;;4.28;;
35110;SDS011;21290;50.158;8.658;2022-08-19T11:08:58;4.53;;;4.10;;
35110;SDS011;21290;50.158;8.658;2022-08-19T11:11:26;9.97;;;4.17;;
35110;SDS011;21290;50.158;8.658;2022-08-19T11:13:54;6.03;;;4.43;;
35110;SDS011;21290;50.158;8.658;2022-08-19T11:16:22;4.30;;;3.90;;
35110;SDS011;21290;50.158;8.658;2022-08-19T11:18:52;16.85;;;4.18;;
35110;SDS011;21290;50.158;8.658;2022-08-19T11:21:22;5.57;;;3.75;;
35110;SDS011;21290;50.158;8.658;2022-08-19T11:23:52;4.47;;;4.03;;
35110;SDS011;21290;50.158;8.658;2022-08-19T11:26:21;5.30;;;4.00;;
35110;SDS011;21290;50.158;8.658;2022-08-19T11:28:49;8.65;;;4.20;;
35110;SDS011;21290;50.158;8.658;2022-08-19T11:31:21;7.55;;;4.80;;
35110;SDS011;21290;50.158;8.658;2022-08-19T11:33:55;6.75;;;4.63;;
35110;SDS011;21290;50.158;8.658;2022-08-19T11:36:27;6.85;;;4.75;;
35110;SDS011;21290;50.158;8.658;2022-08-19T11:38:54;6.93;;;4.40;;
35110;SDS011;21290;50.158;8.658;2022-08-19T11:41:22;6.07;;;4.60;;
35110;SDS011;21290;50.158;8.658;2022-08-19T11:46:19;5.88;;;4.60;;
35110;SDS011;21290;50.158;8.658;2022-08-19T11:51:17;11.77;;;4.93;;
35110;SDS011;21290;50.158;8.658;2022-08-19T11:53:46;7.40;;;4.90;;
35110;SDS011;21290;50.158;8.658;2022-08-19T11:56:12;11.88;;;5.53;;
35110;SDS011;21290;50.158;8.658;2022-08-19T11:58:39;5.50;;;4.78;;
35110;SDS011;21290;50.158;8.658;2022-08-19T12:01:13;6.45;;;4.47;;
35110;SDS011;21290;50.158;8.658;2022-08-19T12:03:43;5.32;;;4.78;;
35110;SDS011;21290;50.158;8.658;2022-08-19T12:06:13;6.75;;;4.75;;
35110;SDS011;21290;50.158;8.658;2022-08-19T12:08:43;5.75;;;5.13;;
35110;SDS011;21290;50.158;8.658;2022-08-19T12:11:12;9.77;;;5.85;;
35110;SDS011;21290;50.158;8.658;2022-08-19T12:13:40;6.00;;;5.40;;
35110;SDS011;21290;50.158;8.658;2022-08-19T12:16:11;10.73;;;5.68;;
35110;SDS011;21290;50.158;8.658;2022-08-19T12:18:41;9.95;;;5.72;;
35110;SDS011;21290;50.158;8.658;2022-08-19T12:21:12;8.20;;;6.10;;
35110;SDS011;21290;50.158;8.658;2022-08-19T12:23:44;5.40;;;4.90;;
35110;SDS011;21290;50.158;8.658;2022-08-19T12:26:11;6.53;;;5.53;;
35110;SDS011;21290;50.158;8.658;2022-08-19T12:28:38;6.10;;;5.60;;
35110;SDS011;21290;50.158;8.658;2022-08-19T12:31:05;8.32;;;5.97;;
35110;SDS011;21290;50.158;8.658;2022-08-19T12:33:32;11.00;;;6.28;;
35110;SDS011;21290;50.158;8.658;2022-08-19T12:36:03;9.45;;;5.97;;
35110;SDS011;21290;50.158;8.658;2022-08-19T12:38:31;6.50;;;5.80;;
35110;SDS011;21290;50.158;8.658;2022-08-19T12:40:58;6.88;;;5.82;;
35110;SDS011;21290;50.158;8.658;2022-08-19T12:43:25;6.80;;;6.10;;
35110;SDS011;21290;50.158;8.658;2022-08-19T12:45:52;7.47;;;6.68;;
35110;SDS011;21290;50.158;8.658;2022-08-19T12:48:20;9.00;;;6.13;;
35110;SDS011;21290;50.158;8.658;2022-08-19T12:51:00;14.55;;;7.65;;
35110;SDS011;21290;50.158;8.658;2022-08-19T12:53:31;9.45;;;7.22;;
35110;SDS011;21290;50.158;8.658;2022-08-19T12:55:59;15.73;;;7.63;;
35110;SDS011;21290;50.158;8.658;2022-08-19T12:58:26;9.57;;;7.13;;
35110;SDS011;21290;50.158;8.658;2022-08-19T13:00:54;7.82;;;6.00;;
35110;SDS011;21290;50.158;8.658;2022-08-19T13:03:21;6.60;;;5.70;;
35110;SDS011;21290;50.158;8.658;2022-08-19T13:05:53;6.88;;;5.30;;
35110;SDS011;21290;50.158;8.658;2022-08-19T13:08:20;7.90;;;4.85;;
35110;SDS011;21290;50.158;8.658;2022-08-19T13:10:46;8.60;;;5.10;;
35110;SDS011;21290;50.158;8.658;2022-08-19T13:13:13;6.70;;;5.40;;
35110;SDS011;21290;50.158;8.658;2022-08-19T13:15:40;6.22;;;5.18;;
35110;SDS011;21290;50.158;8.658;2022-08-19T13:18:08;4.93;;;4.53;;
35110;SDS011;21290;50.158;8.658;2022-08-19T13:20:36;5.20;;;4.70;;
35110;SDS011;21290;50.158;8.658;2022-08-19T13:23:04;7.60;;;4.95;;
35110;SDS011;21290;50.158;8.658;2022-08-19T13:25:31;7.43;;;4.75;;
35110;SDS011;21290;50.158;8.658;2022-08-19T13:27:58;8.52;;;4.80;;
35110;SDS011;21290;50.158;8.658;2022-08-19T13:30:25;4.93;;;4.38;;
35110;SDS011;21290;50.158;8.658;2022-08-19T13:33:11;5.93;;;4.30;;
35110;SDS011;21290;50.158;8.658;2022-08-19T13:35:45;5.38;;;4.15;;
35110;SDS011;21290;50.158;8.658;2022-08-19T13:38:15;5.40;;;3.85;;
35110;SDS011;21290;50.158;8.658;2022-08-19T13:40:44;4.43;;;4.00;;
35110;SDS011;21290;50.158;8.658;2022-08-19T13:43:12;7.32;;;4.35;;
35110;SDS011;21290;50.158;8.658;2022-08-19T13:45:48;5.45;;;3.80;;
35110;SDS011;21290;50.158;8.658;2022-08-19T13:48:16;5.30;;;3.80;;
35110;SDS011;21290;50.158;8.658;2022-08-19T13:50:44;4.53;;;3.50;;
35110;SDS011;21290;50.158;8.658;2022-08-19T13:53:13;4.68;;;3.78;;
35110;SDS011;21290;50.158;8.658;2022-08-19T13:55:41;4.38;;;3.53;;
35110;SDS011;21290;50.158;8.658;2022-08-19T13:58:09;4.03;;;3.63;;
35110;SDS011;21290;50.158;8.658;2022-08-19T14:00:38;3.90;;;3.60;;
35110;SDS011;21290;50.158;8.658;2022-08-19T14:03:07;7.13;;;3.45;;
35110;SDS011;21290;50.158;8.658;2022-08-19T14:05:34;3.50;;;3.20;;
35110;SDS011;21290;50.158;8.658;2022-08-19T14:08:02;3.90;;;3.60;;
35110;SDS011;21290;50.158;8.658;2022-08-19T14:10:29;5.20;;;3.60;;
35110;SDS011;21290;50.158;8.658;2022-08-19T14:12:58;7.00;;;3.85;;
35110;SDS011;21290;50.158;8.658;2022-08-19T14:15:27;5.05;;;3.70;;
35110;SDS011;21290;50.158;8.658;2022-08-19T14:17:54;5.78;;;3.95;;
35110;SDS011;21290;50.158;8.658;2022-08-19T14:20:22;3.70;;;3.40;;
35110;SDS011;21290;50.158;8.658;2022-08-19T14:22:51;3.83;;;3.50;;
35110;SDS011;21290;50.158;8.658;2022-08-19T14:25:20;8.80;;;3.78;;
35110;SDS011;21290;50.158;8.658;2022-08-19T14:27:50;3.88;;;3.08;;
35110;SDS011;21290;50.158;8.658;2022-08-19T14:30:19;6.10;;;3.03;;
35110;SDS011;21290;50.158;8.658;2022-08-19T14:32:47;4.00;;;3.28;;
35110;SDS011;21290;50.158;8.658;2022-08-19T14:35:14;7.10;;;3.20;;
35110;SDS011;21290;50.158;8.658;2022-08-19T14:37:42;7.57;;;3.42;;
35110;SDS011;21290;50.158;8.658;2022-08-19T14:40:22;6.72;;;3.70;;
35110;SDS011;21290;50.158;8.658;2022-08-19T14:42:52;5.05;;;3.63;;
35110;SDS011;21290;50.158;8.658;2022-08-19T14:45:25;4.57;;;3.42;;
35110;SDS011;21290;50.158;8.658;2022-08-19T14:47:53;5.72;;;2.97;;
35110;SDS011;21290;50.158;8.658;2022-08-19T14:50:21;6.67;;;3.73;;
35110;SDS011;21290;50.158;8.658;2022-08-19T14:52:48;4.30;;;3.50;;
35110;SDS011;21290;50.158;8.658;2022-08-19T14:55:15;5.47;;;3.60;;
35110;SDS011;21290;50.158;8.658;2022-08-19T14:57:43;4.38;;;3.50;;
35110;SDS011;21290;50.158;8.658;2022-08-19T15:00:11;6.63;;;3.58;;
35110;SDS011;21290;50.158;8.658;2022-08-19T15:02:39;6.57;;;3.72;;
35110;SDS011;21290;50.158;8.658;2022-08-19T15:05:07;6.35;;;3.33;;
35110;SDS011;21290;50.158;8.658;2022-08-19T15:07:34;3.40;;;3.10;;
35110;SDS011;21290;50.158;8.658;2022-08-19T15:10:01;5.20;;;3.80;;
35110;SDS011;21290;50.158;8.658;2022-08-19T15:12:27;4.78;;;3.17;;
35110;SDS011;21290;50.158;8.658;2022-08-19T15:14:54;3.25;;;2.95;;
35110;SDS011;21290;50.158;8.658;2022-08-19T15:17:22;3.00;;;2.70;;
35110;SDS011;21290;50.158;8.658;2022-08-19T15:20:09;5.38;;;3.00;;